createdAt,value
2023-04-18T05:03:07.441Z,98691.94
2023-04-18T05:08:09.387Z,98693.66
2023-04-18T05:13:10.978Z,98691.13
2023-04-18T05:18:14.112Z,98687.50
2023-04-18T05:23:16.167Z,98697.59
2023-04-18T05:28:17.621Z,98686.09
2023-04-18T05:33:19.050Z,98694.78
2023-04-18T05:38:20.619Z,98687.22
2023-04-18T05:43:23.370Z,98699.50
2023-04-18T05:48:25.186Z,98706.66
2023-04-18T05:53:26.670Z,98696.16
2023-04-18T05:58:28.800Z,98710.03
2023-04-18T06:03:30.395Z,98710.88
2023-04-18T06:08:31.932Z,98708.81
2023-04-18T06:13:33.468Z,98714.66
2023-04-18T06:18:34.947Z,98718.84
2023-04-18T06:23:36.947Z,98720.09
2023-04-18T06:28:38.398Z,98721.09
2023-04-18T06:33:39.855Z,98722.09
2023-04-18T06:38:41.325Z,98731.19
2023-04-18T06:43:52.106Z,98742.06
2023-04-18T06:49:03.996Z,98752.16
2023-04-18T06:54:05.499Z,98745.28
2023-04-18T06:59:06.944Z,98741.25
2023-04-18T07:04:08.889Z,98740.78
2023-04-18T07:09:10.512Z,98725.25
2023-04-18T07:14:12.371Z,98727.06
2023-04-18T07:19:14.179Z,98732.22
2023-04-18T07:24:15.817Z,98733.63
2023-04-18T07:29:19.289Z,98739.47
2023-04-18T07:34:22.016Z,98738.50
2023-04-18T07:39:23.459Z,98745.63
2023-04-18T07:44:25.290Z,98749.00
2023-04-18T07:49:26.842Z,98760.31
2023-04-18T07:54:28.314Z,98749.53
2023-04-18T07:59:29.921Z,98757.34
2023-04-18T08:04:31.536Z,98757.22
2023-04-18T08:09:34.251Z,98763.75
2023-04-18T08:14:35.726Z,98755.50
2023-04-18T08:19:37.224Z,98754.13
2023-04-18T08:24:38.962Z,98746.56
2023-04-18T08:29:41.541Z,98755.03
2023-04-18T08:34:43.377Z,98755.38
2023-04-18T08:39:45.045Z,98764.31
2023-04-18T08:44:47.117Z,98764.00
2023-04-18T08:49:48.744Z,98764.09
2023-04-18T08:54:50.907Z,98764.03
2023-04-18T08:59:56.357Z,98768.78
2023-04-18T09:04:57.797Z,98777.47
2023-04-18T09:09:59.336Z,98781.63
2023-04-18T09:15:14.073Z,98772.66
2023-04-18T09:20:41.146Z,98771.00
2023-04-18T09:25:46.631Z,98772.94
2023-04-18T09:30:51.357Z,98766.63
2023-04-18T09:35:53.148Z,98777.16
2023-04-18T09:41:08.921Z,98768.22
2023-04-18T09:46:11.156Z,98771.34
2023-04-18T09:51:16.512Z,98775.50
2023-04-18T09:56:26.097Z,98770.88
2023-04-18T10:01:28.501Z,98774.91
2023-04-18T10:06:34.416Z,98776.53
2023-04-18T10:11:36.430Z,98778.38
2023-04-18T10:16:38.804Z,98772.53
2023-04-18T10:21:51.365Z,98772.88
2023-04-18T10:26:52.855Z,98779.34
2023-04-18T10:31:54.338Z,98774.31
2023-04-18T10:37:06.126Z,98771.41
2023-04-18T10:42:07.592Z,98775.22
2023-04-18T10:47:09.129Z,98774.69
2023-04-18T10:52:13.282Z,98772.84
2023-04-18T10:57:15.352Z,98763.97
2023-04-18T11:02:29.941Z,98767.31
2023-04-18T11:07:52.820Z,98763.66
2023-04-18T11:12:55.047Z,98765.19
2023-04-18T11:18:01.675Z,98769.56
2023-04-18T11:23:03.520Z,98767.03
2023-04-18T11:28:04.979Z,98776.97
2023-04-18T11:33:08.410Z,98762.53
2023-04-18T11:38:12.577Z,98772.06
2023-04-18T11:43:21.359Z,98769.78
2023-04-18T11:48:23.639Z,98780.50
2023-04-18T11:53:32.727Z,98771.91
2023-04-18T11:58:34.872Z,98772.44
2023-04-18T12:03:36.631Z,98786.00
2023-04-18T12:08:38.172Z,98784.84
2023-04-18T12:13:39.628Z,98785.00
2023-04-18T12:18:41.813Z,98778.06
2023-04-18T12:23:45.782Z,98778.16
2023-04-18T12:28:51.010Z,98787.69
2023-04-18T12:33:52.654Z,98785.16
2023-04-18T12:38:54.133Z,98794.16
2023-04-18T12:43:55.625Z,98778.78
2023-04-18T12:48:57.414Z,98777.16
2023-04-18T12:53:58.960Z,98777.03
2023-04-18T12:59:00.528Z,98778.16
2023-04-18T13:04:11.750Z,98785.47
2023-04-18T13:09:14.509Z,98780.13
2023-04-18T13:14:16.231Z,98769.78
2023-04-18T13:19:17.661Z,98779.59
2023-04-18T13:24:19.127Z,98767.13
2023-04-18T13:29:20.660Z,98769.41
2023-04-18T13:34:22.090Z,98780.75
2023-04-18T13:39:24.705Z,98782.44
2023-04-18T13:44:26.223Z,98779.78
2023-04-18T13:49:28.036Z,98773.44
2023-04-18T13:54:31.410Z,98769.94
2023-04-18T13:59:33.020Z,98760.25
2023-04-18T14:04:34.939Z,98772.13
2023-04-18T14:09:36.436Z,98777.31
2023-04-18T14:14:37.864Z,98773.34
2023-04-18T14:19:39.282Z,98775.25
2023-04-18T14:24:40.730Z,98774.13
2023-04-18T14:29:42.155Z,98766.97
2023-04-18T14:34:43.626Z,98778.31
2023-04-18T14:39:45.072Z,98769.00
2023-04-18T14:44:46.506Z,98768.69
2023-04-18T14:49:47.947Z,98764.69
2023-04-18T14:54:49.406Z,98765.38
2023-04-18T14:59:51.157Z,98767.56
2023-04-18T15:04:53.311Z,98759.44
2023-04-18T15:09:54.875Z,98757.22
2023-04-18T15:14:56.584Z,98752.03
2023-04-18T15:20:00.918Z,98759.72
2023-04-18T15:25:03.983Z,98756.06
2023-04-18T15:30:07.711Z,98748.06
2023-04-18T15:35:10.067Z,98753.09
2023-04-18T15:40:15.955Z,98759.13
2023-04-18T15:45:17.439Z,98754.59
2023-04-18T15:50:19.018Z,98757.97
2023-04-18T15:55:20.642Z,98762.13
2023-04-18T16:00:23.160Z,98748.78
2023-04-18T16:05:24.721Z,98758.81
2023-04-18T16:10:26.187Z,98757.81
2023-04-18T16:15:29.404Z,98764.13
2023-04-18T16:20:33.083Z,98762.44
2023-04-18T16:25:34.541Z,98759.63
2023-04-18T16:30:36.087Z,98756.28
2023-04-18T16:35:37.530Z,98757.41
2023-04-18T16:40:38.959Z,98752.94
2023-04-18T16:45:40.472Z,98757.09
2023-04-18T16:50:45.651Z,98753.28
2023-04-18T16:55:47.072Z,98761.16
2023-04-18T17:00:48.626Z,98763.81
2023-04-18T17:05:50.375Z,98770.81
2023-04-18T17:10:52.581Z,98766.63
2023-04-18T17:15:54.226Z,98774.81
2023-04-18T17:20:55.854Z,98772.28
2023-04-18T17:25:57.596Z,98769.78
2023-04-18T17:31:01.237Z,98784.94
2023-04-18T17:36:06.330Z,98778.13
2023-04-18T17:41:07.991Z,98778.13
2023-04-18T17:46:09.592Z,98778.13
2023-04-18T17:51:11.167Z,98778.13
2023-04-18T17:56:14.073Z,98777.16
2023-04-18T18:01:17.264Z,98783.16
2023-04-18T18:06:19.092Z,98774.50
2023-04-18T18:11:21.344Z,98787.66
2023-04-18T18:16:24.001Z,98786.81
2023-04-18T18:21:26.223Z,98783.47
2023-04-18T18:26:27.691Z,98793.47
2023-04-18T18:31:29.200Z,98788.28
2023-04-18T18:36:32.197Z,98789.09
2023-04-18T18:41:33.898Z,98795.13
2023-04-18T18:46:36.039Z,98800.84
2023-04-18T18:51:37.651Z,98797.88
2023-04-18T18:56:39.951Z,98811.88
2023-04-18T19:01:41.632Z,98801.38
2023-04-18T19:06:43.180Z,98806.84
2023-04-18T19:11:44.688Z,98809.81
2023-04-18T19:16:46.172Z,98801.47
2023-04-18T19:21:49.145Z,98798.09
2023-04-18T19:26:50.748Z,98807.63
2023-04-18T19:31:52.302Z,98802.31
2023-04-18T19:36:53.849Z,98795.81
2023-04-18T19:41:55.361Z,98806.50
2023-04-18T19:46:57.120Z,98789.28
2023-04-18T19:51:58.672Z,98792.09
2023-04-18T19:57:01.064Z,98790.13
2023-04-18T20:02:05.655Z,98782.41
2023-04-18T20:07:07.914Z,98783.56
2023-04-18T20:12:09.456Z,98782.03
2023-04-18T20:17:11.357Z,98778.41
2023-04-18T20:22:14.715Z,98778.41
2023-04-18T20:27:18.668Z,98782.41
2023-04-18T20:32:20.493Z,98786.91
2023-04-18T20:37:22.269Z,98776.25
2023-04-18T20:42:23.823Z,98774.28
2023-04-18T20:47:26.034Z,98771.31
2023-04-18T20:52:27.614Z,98761.91
2023-04-18T20:57:29.320Z,98772.91
2023-04-18T21:02:30.849Z,98765.91
2023-04-18T21:07:32.897Z,98766.72
2023-04-18T21:12:34.892Z,98761.09
2023-04-18T21:17:36.460Z,98762.53
2023-04-18T21:22:38.364Z,98758.66
2023-04-18T21:27:39.836Z,98753.31
2023-04-18T21:32:41.343Z,98755.03
2023-04-18T21:37:43.841Z,98741.69
2023-04-18T21:42:46.478Z,98740.16
2023-04-18T21:47:49.469Z,98739.59
2023-04-18T21:52:52.034Z,98742.28
2023-04-18T21:57:54.172Z,98735.25
